James Turecamo — WDC7565 — position and weather

sailwx.info

Track history (hours):
 
Tides and Currents Weather Stations Pressure Air Temp Water Temp Dewpoint Dewpoint Depression Visibility Wind Speed Wind Dir Waves Ship Positions

James Turecamo

Owner: Moran Towing Corporation, New Canaan, CT. More information available from US FCC via Universal Licensing System and Coast Guard Vessel Documentation Center.

Last reported at 2015-Apr-19 20:33 UTC. Time now 2015-Apr-19 20:59 UTC.
Position N 40°38' W 074°08'.

Length 27 m; draft 4.5 m.

Type: Tug. MMSI: 367073380.

Date/timePositionNaut miles runAvg speedWind from/ knotsBaromVisibWave heightAir tempDewpointWater temp
2015-Apr-19 20:33N 40°38' W 074°08'0 0.0
2015-Apr-19 19:33N 40°38' W 074°08'0 0.0
2015-Apr-19 18:31N 40°38' W 074°08'0 0.0
2015-Apr-19 17:33N 40°38' W 074°08'0 0.0
2015-Apr-19 16:33N 40°38' W 074°08'0 0.0
2015-Apr-19 15:24N 40°38' W 074°08'0 0.0
2015-Apr-19 14:33N 40°38' W 074°08'0 0.4
2015-Apr-19 13:33N 40°39' W 074°07'0 0.4
2015-Apr-19 12:22N 40°38' W 074°08'3 3.7
2015-Apr-19 11:33N 40°41' W 074°09'3 3.0
2015-Apr-19 10:33N 40°38' W 074°08'0 0.0
2015-Apr-19 09:33N 40°38' W 074°08'0 0.0
2015-Apr-19 08:33N 40°38' W 074°08'2 2.1
2015-Apr-19 07:33N 40°39' W 074°05'1 1.1
2015-Apr-19 06:33N 40°39' W 074°07'1 1.0
2015-Apr-19 05:33N 40°38' W 074°08'0 0.0
2015-Apr-19 04:33N 40°38' W 074°08'0 0.0
2015-Apr-19 03:23N 40°38' W 074°08'0 0.0
2015-Apr-19 02:25N 40°38' W 074°08'0 0.0
2015-Apr-19 01:32N 40°38' W 074°08'0 0.0
2015-Apr-19 00:31N 40°38' W 074°08'0 0.0
2015-Apr-18 22:13N 40°38' W 074°08'0 0.0
2015-Apr-18 21:33N 40°38' W 074°08'0 0.0
2015-Apr-18 20:33N 40°38' W 074°08'0 0.0
2015-Apr-18 19:24N 40°38' W 074°08'0 0.0
2015-Apr-18 18:33N 40°38' W 074°08'0 0.0
2015-Apr-18 17:33N 40°38' W 074°08'8 5.8
2015-Apr-18 16:09N 40°33' W 074°15'2 1.2
2015-Apr-18 14:05N 40°34' W 074°13'5 8.9
2015-Apr-18 13:33N 40°39' W 074°11'3 2.5
2015-Apr-18 12:31N 40°38' W 074°08'0 0.0
2015-Apr-18 11:33N 40°38' W 074°08'0 0.0
2015-Apr-18 10:33N 40°38' W 074°08'0 0.0
2015-Apr-18 09:33N 40°38' W 074°08'3 3.0
2015-Apr-18 08:33N 40°40' W 074°04'2 1.5
2015-Apr-18 07:33N 40°39' W 074°06'2 1.6
2015-Apr-18 06:31N 40°38' W 074°08'3 0.7
2015-Apr-18 01:33N 40°40' W 074°03'1 1.2
2015-Apr-18 00:33N 40°40' W 074°05'0 0.4
2015-Apr-17 23:33N 40°40' W 074°04'2 2.5
2015-Apr-17 22:33N 40°39' W 074°07'1 0.5
2015-Apr-17 21:31N 40°38' W 074°08'0 0.0
2015-Apr-17 20:33N 40°38' W 074°08'0 0.0
2015-Apr-17 19:33N 40°38' W 074°08'0 0.0
2015-Apr-17 18:33N 40°38' W 074°08'0 0.0
2015-Apr-17 17:33N 40°38' W 074°08'0 0.0
2015-Apr-17 16:33N 40°38' W 074°08'0 0.0
2015-Apr-17 15:33N 40°38' W 074°08'0 0.0
2015-Apr-17 14:33N 40°38' W 074°08'0 0.0
2015-Apr-17 13:33N 40°38' W 074°08'0 0.0
2015-Apr-17 12:33N 40°38' W 074°08'0 0.0
2015-Apr-17 11:33N 40°38' W 074°08'0 0.0
2015-Apr-17 10:33N 40°38' W 074°08'0 0.0
2015-Apr-17 09:33N 40°38' W 074°08'0 0.0
2015-Apr-17 08:33N 40°38' W 074°08'0 0.0
2015-Apr-17 07:33N 40°38' W 074°08'0 0.0
2015-Apr-17 06:33N 40°38' W 074°08'0 0.0
2015-Apr-17 05:33N 40°38' W 074°08'0 0.0
2015-Apr-17 04:32N 40°38' W 074°08'0 0.0
2015-Apr-17 03:33N 40°38' W 074°08'0 0.4
2015-Apr-17 02:33N 40°39' W 074°08'5 4.3
2015-Apr-17 01:25N 40°35' W 074°13'1 0.6
2015-Apr-17 00:17N 40°34' W 074°12'5 1.9
2015-Apr-16 21:32N 40°39' W 074°08'0 0.2
2015-Apr-16 20:33N 40°38' W 074°08'0 0.0
2015-Apr-16 19:28N 40°38' W 074°08'0 0.0
2015-Apr-16 18:33N 40°38' W 074°08'0 0.0
2015-Apr-16 17:32N 40°38' W 074°08'0 0.0
2015-Apr-16 16:33N 40°38' W 074°08'0 0.0
2015-Apr-16 15:33N 40°38' W 074°08'0 0.0
2015-Apr-16 14:31N 40°38' W 074°08'0 0.0
2015-Apr-16 13:29N 40°38' W 074°08'0 0.0
2015-Apr-16 12:33N 40°38' W 074°08'0 0.0
2015-Apr-16 06:08N 40°38' W 074°08'0 0.0
2015-Apr-16 05:33N 40°38' W 074°08'0 0.0
2015-Apr-16 04:15N 40°38' W 074°08'0 0.0
2015-Apr-16 03:33N 40°38' W 074°08'0 0.0
2015-Apr-16 02:28N 40°38' W 074°08'0 0.0
2015-Apr-16 01:32N 40°38' W 074°08'0 0.0
2015-Apr-16 00:12N 40°38' W 074°08'0 0.0
2015-Apr-15 21:18N 40°38' W 074°08'0 0.0
2015-Apr-15 20:33N 40°38' W 074°08'0 0.0
2015-Apr-15 19:33N 40°38' W 074°08'0 0.0
2015-Apr-15 18:33N 40°38' W 074°08'0 0.0
2015-Apr-15 17:29N 40°38' W 074°08'0 0.0
2015-Apr-15 14:24N 40°38' W 074°08'0 0.0
2015-Apr-15 13:29N 40°38' W 074°08'0 0.0
2015-Apr-15 12:31N 40°38' W 074°08'0 0.0
2015-Apr-15 11:32N 40°38' W 074°08'0 0.0
2015-Apr-15 10:06N 40°38' W 074°08'0 0.0
2015-Apr-15 09:30N 40°38' W 074°08'0 0.0
2015-Apr-15 08:31N 40°38' W 074°08'0 0.0
2015-Apr-15 07:33N 40°38' W 074°08'0 0.0
2015-Apr-15 06:33N 40°38' W 074°08'0 0.0
2015-Apr-15 05:33N 40°38' W 074°08'0 0.0
2015-Apr-15 04:33N 40°38' W 074°08'0 0.0
2015-Apr-15 03:32N 40°38' W 074°08'0 0.0
2015-Apr-15 01:33N 40°38' W 074°08'0 0.0
2015-Apr-15 00:28N 40°38' W 074°08'3 3.0
2015-Apr-14 23:33N 40°40' W 074°05'3 2.6
2015-Apr-14 22:33N 40°38' W 074°03'4 4.5
2015-Apr-14 21:33N 40°39' W 074°09'3 2.6
2015-Apr-14 20:32N 40°42' W 074°08'3 2.7
2015-Apr-14 19:17N 40°38' W 074°08'0 0.0
2015-Apr-14 18:31N 40°38' W 074°08'5 5.2
2015-Apr-14 17:34N 40°41' W 074°02'9 9.2
2015-Apr-14 16:33N 40°48' W 073°54'1 0.6
2015-Apr-14 15:32N 40°47' W 073°55'8 7.7
2015-Apr-14 14:34N 40°41' W 074°01'6 6.0
2015-Apr-14 13:33N 40°38' W 074°08'0 0.0
2015-Apr-14 11:26N 40°38' W 074°08'2 1.9
2015-Apr-14 10:33N 40°40' W 074°08'1 1.5
2015-Apr-14 09:34N 40°42' W 074°08'3 2.6
2015-Apr-14 08:21N 40°38' W 074°08'0 0.0
2015-Apr-14 07:32N 40°38' W 074°08'0 0.0
2015-Apr-14 06:32N 40°38' W 074°08'0 0.0
2015-Apr-14 05:31N 40°38' W 074°08'3 3.3
2015-Apr-14 04:33N 40°42' W 074°08'2 1.8
2015-Apr-14 03:33N 40°40' W 074°08'4 3.8
2015-Apr-14 02:33N 40°38' W 074°04'3 2.7
2015-Apr-14 01:27N 40°38' W 074°08'0 0.0
2015-Apr-14 00:33N 40°38' W 074°08'0 0.0
2015-Apr-13 23:18N 40°38' W 074°08'0 0.0
2015-Apr-13 21:33N 40°38' W 074°08'0 0.0
2015-Apr-13 20:33N 40°38' W 074°08'1 0.9
2015-Apr-13 19:33N 40°39' W 074°09'2 2.0
2015-Apr-13 18:33N 40°40' W 074°08'2 2.1
2015-Apr-13 17:33N 40°38' W 074°08'0 0.0
2015-Apr-13 16:33N 40°38' W 074°08'0 0.0
2015-Apr-13 15:32N 40°38' W 074°08'1 1.0
2015-Apr-13 14:33N 40°39' W 074°09'7 6.9
2015-Apr-13 13:33N 40°45' W 074°06'0 0.4
2015-Apr-13 12:32N 40°46' W 074°06'0 0.0
2015-Apr-13 11:24N 40°46' W 074°06'5 5.4
2015-Apr-13 10:31N 40°49' W 074°02'2 1.6
2015-Apr-13 09:33N 40°48' W 074°04'4 3.7
2015-Apr-13 08:33N 40°45' W 074°05'3 2.9
2015-Apr-13 07:33N 40°42' W 074°07'3 2.8
2015-Apr-13 06:33N 40°40' W 074°08'1 1.3
2015-Apr-13 05:30N 40°38' W 074°08'0 0.0
2015-Apr-13 04:20N 40°38' W 074°08'0 0.0
2015-Apr-13 03:16N 40°38' W 074°08'0 0.0
2015-Apr-13 02:34N 40°38' W 074°08'0 0.0
2015-Apr-13 01:34N 40°38' W 074°08'0 0.1
2015-Apr-13 00:33N 40°38' W 074°08'8 6.6
2015-Apr-12 23:18N 40°32' W 074°15'2 0.9
2015-Apr-12 21:28N 40°33' W 074°13'7 6.4
2015-Apr-12 20:26N 40°38' W 074°08'0 0.0
2015-Apr-12 19:07N 40°38' W 074°08'0 0.0
2015-Apr-12 18:32N 40°38' W 074°08'0 0.0
2015-Apr-12 17:15N 40°38' W 074°08'0 0.0
2015-Apr-12 16:25N 40°38' W 074°08'0 0.0
2015-Apr-12 15:33N 40°38' W 074°08'0 0.1
2015-Apr-12 14:33N 40°38' W 074°08'1 1.5
2015-Apr-12 13:32N 40°39' W 074°06'1 0.6
2015-Apr-12 12:33N 40°39' W 074°05'2 2.1
2015-Apr-12 11:33N 40°38' W 074°08'0 0.0
2015-Apr-12 10:34N 40°38' W 074°08'0 0.0
2015-Apr-12 09:33N 40°38' W 074°08'0 0.0
2015-Apr-12 08:33N 40°38' W 074°08'0 0.0
2015-Apr-12 06:23N 40°38' W 074°08'0 0.0
2015-Apr-12 03:23N 40°38' W 074°08'0 0.0
2015-Apr-12 00:32N 40°38' W 074°08'1 1.4
2015-Apr-11 23:32N 40°40' W 074°09'8 5.4
2015-Apr-11 22:08N 40°33' W 074°14'0 0.1
2015-Apr-11 21:23N 40°33' W 074°14'6 2.3
2015-Apr-11 18:33N 40°39' W 074°09'1 0.8
2015-Apr-11 17:10N 40°38' W 074°08'0 0.0
2015-Apr-11 16:14N 40°38' W 074°08'0 0.3
2015-Apr-11 15:33N 40°39' W 074°08'3 3.1
2015-Apr-11 14:33N 40°42' W 074°08'2 2.3
2015-Apr-11 13:33N 40°39' W 074°09'1 0.9
2015-Apr-11 12:17N 40°38' W 074°08'0 0.0
2015-Apr-11 11:31N 40°38' W 074°08'0 0.0
2015-Apr-11 10:33N 40°38' W 074°08'0 0.0
2015-Apr-11 09:32N 40°38' W 074°08'0 0.0
2015-Apr-11 07:24N 40°38' W 074°08'3 1.0
2015-Apr-11 04:16N 40°38' W 074°12'3 4.5
2015-Apr-11 03:33N 40°38' W 074°08'0 0.0
2015-Apr-11 02:07N 40°38' W 074°08'0 0.0
2015-Apr-11 01:33N 40°38' W 074°08'3 3.4
2015-Apr-11 00:34N 40°38' W 074°03'6 5.5
2015-Apr-10 23:33N 40°41' W 074°09'0 0.1
2015-Apr-10 22:33N 40°41' W 074°09'3 2.7
2015-Apr-10 21:28N 40°38' W 074°08'0 0.0
2015-Apr-10 20:33N 40°38' W 074°08'0 0.0
2015-Apr-10 19:31N 40°38' W 074°08'0 0.0
2015-Apr-10 18:22N 40°38' W 074°08'0 0.0
2015-Apr-10 17:33N 40°38' W 074°08'0 0.0
2015-Apr-10 16:32N 40°38' W 074°08'3 3.4
2015-Apr-10 15:33N 40°40' W 074°04'8 7.6
2015-Apr-10 14:33N 40°47' W 073°60'9 8.9
2015-Apr-10 13:33N 40°39' W 074°06'2 1.8
2015-Apr-10 12:33N 40°38' W 074°08'0 0.0
2015-Apr-10 11:33N 40°38' W 074°08'1 1.1
2015-Apr-10 10:33N 40°39' W 074°07'1 0.2
2015-Apr-10 06:07N 40°38' W 074°08'0 0.0
2015-Apr-10 05:33N 40°38' W 074°08'0 0.0
2015-Apr-10 04:29N 40°38' W 074°08'0 0.0
2015-Apr-10 03:24N 40°38' W 074°08'0 0.0
2015-Apr-10 02:24N 40°38' W 074°08'4 4.2
2015-Apr-10 01:33N 40°42' W 074°09'4 3.2
2015-Apr-10 00:28N 40°38' W 074°08'0 0.0
2015-Apr-09 23:10N 40°38' W 074°08'0 0.0
2015-Apr-09 22:32N 40°38' W 074°08'1 0.6
2015-Apr-09 21:33N 40°39' W 074°08'  
Track history (hours):
 
Tides and Currents Weather Stations Pressure Air Temp Water Temp Dewpoint Dewpoint Depression Visibility Wind Speed Wind Dir Waves Ship Positions

James Turecamo

Owner: Moran Towing Corporation, New Canaan, CT. More information available from US FCC via Universal Licensing System and Coast Guard Vessel Documentation Center.

Last reported at 2015-Apr-19 20:33 UTC. Time now 2015-Apr-19 20:59 UTC.
Position N 40°38' W 074°08'.

Length 27 m; draft 4.5 m.

Type: Tug. MMSI: 367073380.

Date/timePositionNaut miles runAvg speedWind from/ knotsBaromVisibWave heightAir tempDewpointWater temp
2015-Apr-19 20:33N 40°38' W 074°08'0 0.0
2015-Apr-19 19:33N 40°38' W 074°08'0 0.0
2015-Apr-19 18:31N 40°38' W 074°08'0 0.0
2015-Apr-19 17:33N 40°38' W 074°08'0 0.0
2015-Apr-19 16:33N 40°38' W 074°08'0 0.0
2015-Apr-19 15:24N 40°38' W 074°08'0 0.0
2015-Apr-19 14:33N 40°38' W 074°08'0 0.4
2015-Apr-19 13:33N 40°39' W 074°07'0 0.4
2015-Apr-19 12:22N 40°38' W 074°08'3 3.7
2015-Apr-19 11:33N 40°41' W 074°09'3 3.0
2015-Apr-19 10:33N 40°38' W 074°08'0 0.0
2015-Apr-19 09:33N 40°38' W 074°08'0 0.0
2015-Apr-19 08:33N 40°38' W 074°08'2 2.1
2015-Apr-19 07:33N 40°39' W 074°05'1 1.1
2015-Apr-19 06:33N 40°39' W 074°07'1 1.0
2015-Apr-19 05:33N 40°38' W 074°08'0 0.0
2015-Apr-19 04:33N 40°38' W 074°08'0 0.0
2015-Apr-19 03:23N 40°38' W 074°08'0 0.0
2015-Apr-19 02:25N 40°38' W 074°08'0 0.0
2015-Apr-19 01:32N 40°38' W 074°08'0 0.0
2015-Apr-19 00:31N 40°38' W 074°08'0 0.0
2015-Apr-18 22:13N 40°38' W 074°08'0 0.0
2015-Apr-18 21:33N 40°38' W 074°08'0 0.0
2015-Apr-18 20:33N 40°38' W 074°08'0 0.0
2015-Apr-18 19:24N 40°38' W 074°08'0 0.0
2015-Apr-18 18:33N 40°38' W 074°08'0 0.0
2015-Apr-18 17:33N 40°38' W 074°08'8 5.8
2015-Apr-18 16:09N 40°33' W 074°15'2 1.2
2015-Apr-18 14:05N 40°34' W 074°13'5 8.9
2015-Apr-18 13:33N 40°39' W 074°11'3 2.5
2015-Apr-18 12:31N 40°38' W 074°08'0 0.0
2015-Apr-18 11:33N 40°38' W 074°08'0 0.0
2015-Apr-18 10:33N 40°38' W 074°08'0 0.0
2015-Apr-18 09:33N 40°38' W 074°08'3 3.0
2015-Apr-18 08:33N 40°40' W 074°04'2 1.5
2015-Apr-18 07:33N 40°39' W 074°06'2 1.6
2015-Apr-18 06:31N 40°38' W 074°08'3 0.7
2015-Apr-18 01:33N 40°40' W 074°03'1 1.2
2015-Apr-18 00:33N 40°40' W 074°05'0 0.4
2015-Apr-17 23:33N 40°40' W 074°04'2 2.5
2015-Apr-17 22:33N 40°39' W 074°07'1 0.5
2015-Apr-17 21:31N 40°38' W 074°08'0 0.0
2015-Apr-17 20:33N 40°38' W 074°08'0 0.0
2015-Apr-17 19:33N 40°38' W 074°08'0 0.0
2015-Apr-17 18:33N 40°38' W 074°08'0 0.0
2015-Apr-17 17:33N 40°38' W 074°08'0 0.0
2015-Apr-17 16:33N 40°38' W 074°08'0 0.0
2015-Apr-17 15:33N 40°38' W 074°08'0 0.0
2015-Apr-17 14:33N 40°38' W 074°08'0 0.0
2015-Apr-17 13:33N 40°38' W 074°08'0 0.0
2015-Apr-17 12:33N 40°38' W 074°08'0 0.0
2015-Apr-17 11:33N 40°38' W 074°08'0 0.0
2015-Apr-17 10:33N 40°38' W 074°08'0 0.0
2015-Apr-17 09:33N 40°38' W 074°08'0 0.0
2015-Apr-17 08:33N 40°38' W 074°08'0 0.0
2015-Apr-17 07:33N 40°38' W 074°08'0 0.0
2015-Apr-17 06:33N 40°38' W 074°08'0 0.0
2015-Apr-17 05:33N 40°38' W 074°08'0 0.0
2015-Apr-17 04:32N 40°38' W 074°08'0 0.0
2015-Apr-17 03:33N 40°38' W 074°08'0 0.4
2015-Apr-17 02:33N 40°39' W 074°08'5 4.3
2015-Apr-17 01:25N 40°35' W 074°13'1 0.6
2015-Apr-17 00:17N 40°34' W 074°12'5 1.9
2015-Apr-16 21:32N 40°39' W 074°08'0 0.2
2015-Apr-16 20:33N 40°38' W 074°08'0 0.0
2015-Apr-16 19:28N 40°38' W 074°08'0 0.0
2015-Apr-16 18:33N 40°38' W 074°08'0 0.0
2015-Apr-16 17:32N 40°38' W 074°08'0 0.0
2015-Apr-16 16:33N 40°38' W 074°08'0 0.0
2015-Apr-16 15:33N 40°38' W 074°08'0 0.0
2015-Apr-16 14:31N 40°38' W 074°08'0 0.0
2015-Apr-16 13:29N 40°38' W 074°08'0 0.0
2015-Apr-16 12:33N 40°38' W 074°08'0 0.0
2015-Apr-16 06:08N 40°38' W 074°08'0 0.0
2015-Apr-16 05:33N 40°38' W 074°08'0 0.0
2015-Apr-16 04:15N 40°38' W 074°08'0 0.0
2015-Apr-16 03:33N 40°38' W 074°08'0 0.0
2015-Apr-16 02:28N 40°38' W 074°08'0 0.0
2015-Apr-16 01:32N 40°38' W 074°08'0 0.0
2015-Apr-16 00:12N 40°38' W 074°08'0 0.0
2015-Apr-15 21:18N 40°38' W 074°08'0 0.0
2015-Apr-15 20:33N 40°38' W 074°08'0 0.0
2015-Apr-15 19:33N 40°38' W 074°08'0 0.0
2015-Apr-15 18:33N 40°38' W 074°08'0 0.0
2015-Apr-15 17:29N 40°38' W 074°08'0 0.0
2015-Apr-15 14:24N 40°38' W 074°08'0 0.0
2015-Apr-15 13:29N 40°38' W 074°08'0 0.0
2015-Apr-15 12:31N 40°38' W 074°08'0 0.0
2015-Apr-15 11:32N 40°38' W 074°08'0 0.0
2015-Apr-15 10:06N 40°38' W 074°08'0 0.0
2015-Apr-15 09:30N 40°38' W 074°08'0 0.0
2015-Apr-15 08:31N 40°38' W 074°08'0 0.0
2015-Apr-15 07:33N 40°38' W 074°08'0 0.0
2015-Apr-15 06:33N 40°38' W 074°08'0 0.0
2015-Apr-15 05:33N 40°38' W 074°08'0 0.0
2015-Apr-15 04:33N 40°38' W 074°08'0 0.0
2015-Apr-15 03:32N 40°38' W 074°08'0 0.0
2015-Apr-15 01:33N 40°38' W 074°08'0 0.0
2015-Apr-15 00:28N 40°38' W 074°08'3 3.0
2015-Apr-14 23:33N 40°40' W 074°05'3 2.6
2015-Apr-14 22:33N 40°38' W 074°03'4 4.5
2015-Apr-14 21:33N 40°39' W 074°09'3 2.6
2015-Apr-14 20:32N 40°42' W 074°08'3 2.7
2015-Apr-14 19:17N 40°38' W 074°08'0 0.0
2015-Apr-14 18:31N 40°38' W 074°08'5 5.2
2015-Apr-14 17:34N 40°41' W 074°02'9 9.2
2015-Apr-14 16:33N 40°48' W 073°54'1 0.6
2015-Apr-14 15:32N 40°47' W 073°55'8 7.7
2015-Apr-14 14:34N 40°41' W 074°01'6 6.0
2015-Apr-14 13:33N 40°38' W 074°08'0 0.0
2015-Apr-14 11:26N 40°38' W 074°08'2 1.9
2015-Apr-14 10:33N 40°40' W 074°08'1 1.5
2015-Apr-14 09:34N 40°42' W 074°08'3 2.6
2015-Apr-14 08:21N 40°38' W 074°08'0 0.0
2015-Apr-14 07:32N 40°38' W 074°08'0 0.0
2015-Apr-14 06:32N 40°38' W 074°08'0 0.0
2015-Apr-14 05:31N 40°38' W 074°08'3 3.3
2015-Apr-14 04:33N 40°42' W 074°08'2 1.8
2015-Apr-14 03:33N 40°40' W 074°08'4 3.8
2015-Apr-14 02:33N 40°38' W 074°04'3 2.7
2015-Apr-14 01:27N 40°38' W 074°08'0 0.0
2015-Apr-14 00:33N 40°38' W 074°08'0 0.0
2015-Apr-13 23:18N 40°38' W 074°08'0 0.0
2015-Apr-13 21:33N 40°38' W 074°08'0 0.0
2015-Apr-13 20:33N 40°38' W 074°08'1 0.9
2015-Apr-13 19:33N 40°39' W 074°09'2 2.0
2015-Apr-13 18:33N 40°40' W 074°08'2 2.1
2015-Apr-13 17:33N 40°38' W 074°08'0 0.0
2015-Apr-13 16:33N 40°38' W 074°08'0 0.0
2015-Apr-13 15:32N 40°38' W 074°08'1 1.0
2015-Apr-13 14:33N 40°39' W 074°09'7 6.9
2015-Apr-13 13:33N 40°45' W 074°06'0 0.4
2015-Apr-13 12:32N 40°46' W 074°06'0 0.0
2015-Apr-13 11:24N 40°46' W 074°06'5 5.4
2015-Apr-13 10:31N 40°49' W 074°02'2 1.6
2015-Apr-13 09:33N 40°48' W 074°04'4 3.7
2015-Apr-13 08:33N 40°45' W 074°05'3 2.9
2015-Apr-13 07:33N 40°42' W 074°07'3 2.8
2015-Apr-13 06:33N 40°40' W 074°08'1 1.3
2015-Apr-13 05:30N 40°38' W 074°08'0 0.0
2015-Apr-13 04:20N 40°38' W 074°08'0 0.0
2015-Apr-13 03:16N 40°38' W 074°08'0 0.0
2015-Apr-13 02:34N 40°38' W 074°08'0 0.0
2015-Apr-13 01:34N 40°38' W 074°08'0 0.1
2015-Apr-13 00:33N 40°38' W 074°08'8 6.6
2015-Apr-12 23:18N 40°32' W 074°15'2 0.9
2015-Apr-12 21:28N 40°33' W 074°13'7 6.4
2015-Apr-12 20:26N 40°38' W 074°08'0 0.0
2015-Apr-12 19:07N 40°38' W 074°08'0 0.0
2015-Apr-12 18:32N 40°38' W 074°08'0 0.0
2015-Apr-12 17:15N 40°38' W 074°08'0 0.0
2015-Apr-12 16:25N 40°38' W 074°08'0 0.0
2015-Apr-12 15:33N 40°38' W 074°08'0 0.1
2015-Apr-12 14:33N 40°38' W 074°08'1 1.5
2015-Apr-12 13:32N 40°39' W 074°06'1 0.6
2015-Apr-12 12:33N 40°39' W 074°05'2 2.1
2015-Apr-12 11:33N 40°38' W 074°08'0 0.0
2015-Apr-12 10:34N 40°38' W 074°08'0 0.0
2015-Apr-12 09:33N 40°38' W 074°08'0 0.0
2015-Apr-12 08:33N 40°38' W 074°08'0 0.0
2015-Apr-12 06:23N 40°38' W 074°08'0 0.0
2015-Apr-12 03:23N 40°38' W 074°08'0 0.0
2015-Apr-12 00:32N 40°38' W 074°08'1 1.4
2015-Apr-11 23:32N 40°40' W 074°09'8 5.4
2015-Apr-11 22:08N 40°33' W 074°14'0 0.1
2015-Apr-11 21:23N 40°33' W 074°14'6 2.3
2015-Apr-11 18:33N 40°39' W 074°09'1 0.8
2015-Apr-11 17:10N 40°38' W 074°08'0 0.0
2015-Apr-11 16:14N 40°38' W 074°08'0 0.3
2015-Apr-11 15:33N 40°39' W 074°08'3 3.1
2015-Apr-11 14:33N 40°42' W 074°08'2 2.3
2015-Apr-11 13:33N 40°39' W 074°09'1 0.9
2015-Apr-11 12:17N 40°38' W 074°08'0 0.0
2015-Apr-11 11:31N 40°38' W 074°08'0 0.0
2015-Apr-11 10:33N 40°38' W 074°08'0 0.0
2015-Apr-11 09:32N 40°38' W 074°08'0 0.0
2015-Apr-11 07:24N 40°38' W 074°08'3 1.0
2015-Apr-11 04:16N 40°38' W 074°12'3 4.5
2015-Apr-11 03:33N 40°38' W 074°08'0 0.0
2015-Apr-11 02:07N 40°38' W 074°08'0 0.0
2015-Apr-11 01:33N 40°38' W 074°08'3 3.4
2015-Apr-11 00:34N 40°38' W 074°03'6 5.5
2015-Apr-10 23:33N 40°41' W 074°09'0 0.1
2015-Apr-10 22:33N 40°41' W 074°09'3 2.7
2015-Apr-10 21:28N 40°38' W 074°08'0 0.0
2015-Apr-10 20:33N 40°38' W 074°08'0 0.0
2015-Apr-10 19:31N 40°38' W 074°08'0 0.0
2015-Apr-10 18:22N 40°38' W 074°08'0 0.0
2015-Apr-10 17:33N 40°38' W 074°08'0 0.0
2015-Apr-10 16:32N 40°38' W 074°08'3 3.4
2015-Apr-10 15:33N 40°40' W 074°04'8 7.6
2015-Apr-10 14:33N 40°47' W 073°60'9 8.9
2015-Apr-10 13:33N 40°39' W 074°06'2 1.8
2015-Apr-10 12:33N 40°38' W 074°08'0 0.0
2015-Apr-10 11:33N 40°38' W 074°08'1 1.1
2015-Apr-10 10:33N 40°39' W 074°07'1 0.2
2015-Apr-10 06:07N 40°38' W 074°08'0 0.0
2015-Apr-10 05:33N 40°38' W 074°08'0 0.0
2015-Apr-10 04:29N 40°38' W 074°08'0 0.0
2015-Apr-10 03:24N 40°38' W 074°08'0 0.0
2015-Apr-10 02:24N 40°38' W 074°08'4 4.2
2015-Apr-10 01:33N 40°42' W 074°09'4 3.2
2015-Apr-10 00:28N 40°38' W 074°08'0 0.0
2015-Apr-09 23:10N 40°38' W 074°08'0 0.0
2015-Apr-09 22:32N 40°38' W 074°08'1 0.6
2015-Apr-09 21:33N 40°39' W 074°08'  

Dump ship's entire track history